createdAt,value
2019-06-26T00:02:29.214Z,24.80
2019-06-26T00:04:59.380Z,24.70
2019-06-26T00:07:29.336Z,24.70
2019-06-26T00:09:59.082Z,24.70
2019-06-26T00:12:28.884Z,24.70
2019-06-26T00:15:04.328Z,24.70
2019-06-26T00:17:31.553Z,24.60
2019-06-26T00:20:01.299Z,24.60
2019-06-26T00:22:30.974Z,24.60
2019-06-26T00:25:00.768Z,24.50
2019-06-26T00:27:32.300Z,24.50
2019-06-26T00:30:05.400Z,24.50
2019-06-26T00:32:38.963Z,24.50
2019-06-26T00:35:11.357Z,24.50
2019-06-26T00:37:41.144Z,24.50
2019-06-26T00:40:17.105Z,24.50
2019-06-26T00:42:50.715Z,24.40
2019-06-26T00:45:21.823Z,24.40
2019-06-26T00:47:51.949Z,24.40
2019-06-26T00:50:24.081Z,24.40
2019-06-26T00:52:54.017Z,24.40
2019-06-26T00:55:25.007Z,24.40
2019-06-26T00:57:56.639Z,24.40
2019-06-26T01:00:33.096Z,24.30
2019-06-26T01:03:06.281Z,24.30
2019-06-26T01:05:36.105Z,24.20
2019-06-26T01:08:08.211Z,24.30
2019-06-26T01:10:37.985Z,24.30
2019-06-26T01:13:08.841Z,24.20
2019-06-26T01:15:38.558Z,24.20
2019-06-26T01:18:11.744Z,24.10
2019-06-26T01:20:43.725Z,24.20
2019-06-26T01:23:20.149Z,24.10
2019-06-26T01:25:49.921Z,24.10
2019-06-26T01:28:21.757Z,24.10
2019-06-26T01:30:54.383Z,24.00
2019-06-26T01:33:24.164Z,24.00
2019-06-26T01:35:53.845Z,24.00
2019-06-26T01:38:28.951Z,24.00
2019-06-26T01:41:04.830Z,24.00
2019-06-26T01:43:35.431Z,23.90
2019-06-26T01:46:07.578Z,23.90
2019-06-26T01:48:40.586Z,23.80
2019-06-26T01:51:12.099Z,23.80
2019-06-26T01:53:50.368Z,23.80
2019-06-26T01:56:21.440Z,23.80
2019-06-26T01:58:53.329Z,23.80
2019-06-26T02:01:27.048Z,23.80
2019-06-26T02:03:57.596Z,23.80
2019-06-26T02:06:28.655Z,23.80
2019-06-26T02:09:01.219Z,23.80
2019-06-26T02:11:34.723Z,23.80
2019-06-26T02:14:05.303Z,23.80
2019-06-26T02:16:35.181Z,23.80
2019-06-26T02:19:08.430Z,23.80
2019-06-26T02:21:39.330Z,23.70
2019-06-26T02:24:11.435Z,23.70
2019-06-26T02:26:45.059Z,23.70
2019-06-26T02:29:14.867Z,23.70
2019-06-26T02:31:51.625Z,23.60
2019-06-26T02:34:24.991Z,23.60
2019-06-26T02:36:54.894Z,23.60
2019-06-26T02:39:25.789Z,23.60
2019-06-26T02:41:55.521Z,23.60
2019-06-26T02:44:25.396Z,23.60
2019-06-26T02:47:13.483Z,23.60
2019-06-26T02:49:26.780Z,23.60
2019-06-26T02:51:56.708Z,23.50
2019-06-26T02:54:31.332Z,23.50
2019-06-26T02:57:04.502Z,23.50
2019-06-26T02:59:34.375Z,23.50
2019-06-26T03:02:08.273Z,23.50
2019-06-26T03:04:39.659Z,23.50
2019-06-26T03:07:10.095Z,23.50
2019-06-26T03:09:41.871Z,23.50
2019-06-26T03:12:12.483Z,23.40
2019-06-26T03:14:43.215Z,23.40
2019-06-26T03:17:20.536Z,23.40
2019-06-26T03:19:50.295Z,23.40
2019-06-26T03:22:20.062Z,23.30
2019-06-26T03:24:53.075Z,23.30
2019-06-26T03:27:23.088Z,23.40
2019-06-26T03:29:59.033Z,23.30
2019-06-26T03:32:30.754Z,23.40
2019-06-26T03:35:00.525Z,23.40
2019-06-26T03:37:30.237Z,23.40
2019-06-26T03:40:00.063Z,23.50
2019-06-26T03:42:29.807Z,23.50
2019-06-26T03:44:59.555Z,23.50
2019-06-26T03:47:29.450Z,23.50
2019-06-26T03:49:59.144Z,23.50
2019-06-26T03:52:28.972Z,23.50
2019-06-26T03:54:58.680Z,23.50
2019-06-26T03:57:28.533Z,23.60
2019-06-26T03:59:58.282Z,23.60
2019-06-26T04:02:28.127Z,23.60
2019-06-26T04:04:57.833Z,23.60
2019-06-26T04:07:27.615Z,23.60
2019-06-26T04:09:57.373Z,23.60
2019-06-26T04:12:28.441Z,23.60
2019-06-26T04:15:01.224Z,23.60
2019-06-26T04:17:31.898Z,23.70
2019-06-26T04:20:04.894Z,23.70
2019-06-26T04:22:37.715Z,23.80
2019-06-26T04:25:07.835Z,23.80
2019-06-26T04:27:37.612Z,23.80
2019-06-26T04:30:07.830Z,23.80
2019-06-26T04:32:37.697Z,23.80
2019-06-26T04:35:09.669Z,23.90
2019-06-26T04:37:39.504Z,23.90
2019-06-26T04:40:10.860Z,23.90
2019-06-26T04:42:40.551Z,24.00
2019-06-26T04:45:10.337Z,24.00
2019-06-26T04:47:39.995Z,24.00
2019-06-26T04:50:11.309Z,24.00
2019-06-26T04:52:41.094Z,24.10
2019-06-26T04:55:11.011Z,24.10
2019-06-26T04:57:40.793Z,24.10
2019-06-26T05:00:12.578Z,24.20
2019-06-26T05:02:42.383Z,24.30
2019-06-26T05:05:12.399Z,24.30
2019-06-26T05:07:42.136Z,24.40
2019-06-26T05:10:13.698Z,24.40
2019-06-26T05:12:43.515Z,24.50
2019-06-26T05:15:14.318Z,24.50
2019-06-26T05:17:44.106Z,24.50
2019-06-26T05:20:14.154Z,24.60
2019-06-26T05:22:43.992Z,24.60
2019-06-26T05:25:13.796Z,24.70
2019-06-26T05:27:43.506Z,24.70
2019-06-26T05:30:14.875Z,24.70
2019-06-26T05:32:44.553Z,24.80
2019-06-26T05:35:19.339Z,24.90
2019-06-26T05:37:49.714Z,24.90
2019-06-26T05:40:19.571Z,24.90
2019-06-26T05:42:49.268Z,25.00
2019-06-26T05:45:19.248Z,25.00
2019-06-26T05:47:49.974Z,25.00
2019-06-26T05:50:20.025Z,25.10
2019-06-26T05:52:52.850Z,25.20
2019-06-26T05:55:22.677Z,25.20
2019-06-26T05:57:52.500Z,25.30
2019-06-26T06:00:22.484Z,25.30
2019-06-26T06:02:54.024Z,25.40
2019-06-26T06:05:23.844Z,25.40
2019-06-26T06:07:53.687Z,25.40
2019-06-26T06:10:23.730Z,25.40
2019-06-26T06:12:53.475Z,25.50
2019-06-26T06:15:25.340Z,25.60
2019-06-26T06:17:55.081Z,25.60
2019-06-26T06:20:45.369Z,25.70
2019-06-26T06:23:20.946Z,25.70
2019-06-26T06:25:51.758Z,25.80
2019-06-26T06:28:22.914Z,25.90
2019-06-26T06:31:00.840Z,26.00
2019-06-26T06:33:33.410Z,26.00
2019-06-26T06:36:03.197Z,26.10
2019-06-26T06:38:34.877Z,26.20
2019-06-26T06:41:06.420Z,26.30
2019-06-26T06:43:37.310Z,26.40
2019-06-26T06:46:09.163Z,26.50
2019-06-26T06:48:38.964Z,26.50
2019-06-26T06:51:14.422Z,26.70
2019-06-26T06:53:46.259Z,26.90
2019-06-26T06:56:21.397Z,27.20
2019-06-26T06:58:51.247Z,27.40
2019-06-26T07:01:23.911Z,27.70
2019-06-26T07:03:56.723Z,27.90
2019-06-26T07:06:36.330Z,28.20
2019-06-26T07:09:09.249Z,28.50
2019-06-26T07:11:39.048Z,29.00
2019-06-26T07:14:08.970Z,29.40
2019-06-26T07:16:41.686Z,30.00
2019-06-26T07:19:11.427Z,30.70
2019-06-26T07:21:46.487Z,31.40
2019-06-26T07:24:16.144Z,32.10
2019-06-26T07:26:56.070Z,32.90
2019-06-26T07:29:26.675Z,33.70
2019-06-26T07:31:57.568Z,34.50
2019-06-26T07:34:27.395Z,35.10
2019-06-26T07:37:09.231Z,35.30
2019-06-26T07:40:01.305Z,35.90
2019-06-26T07:44:57.766Z,36.50
2019-06-26T07:47:42.665Z,36.90
2019-06-26T07:50:02.873Z,37.20
2019-06-26T07:52:39.679Z,37.50
2019-06-26T07:55:16.986Z,37.70
2019-06-26T07:57:46.850Z,37.70
2019-06-26T08:00:21.168Z,37.80
2019-06-26T08:02:52.896Z,38.00
2019-06-26T08:05:27.075Z,38.40
2019-06-26T08:08:06.341Z,38.70
2019-06-26T08:10:36.511Z,38.90
2019-06-26T08:13:16.137Z,39.30
2019-06-26T08:15:45.893Z,39.50
2019-06-26T08:18:22.581Z,39.50
2019-06-26T08:21:11.660Z,39.80
2019-06-26T08:23:45.712Z,39.80
2019-06-26T08:26:18.897Z,40.00
2019-06-26T08:29:10.161Z,40.10
2019-06-26T08:31:45.877Z,40.00
2019-06-26T08:34:21.436Z,39.70
2019-06-26T08:36:53.769Z,39.80
2019-06-26T08:39:27.151Z,40.10
2019-06-26T08:42:01.410Z,40.00
2019-06-26T08:44:29.619Z,40.30
2019-06-26T08:47:06.304Z,40.30
2019-06-26T08:49:39.438Z,40.40
2019-06-26T08:52:09.294Z,40.40
2019-06-26T08:54:47.321Z,40.60
2019-06-26T08:57:23.866Z,40.70
2019-06-26T09:00:00.745Z,40.50
2019-06-26T09:02:44.367Z,40.40
2019-06-26T09:05:26.283Z,40.30
2019-06-26T09:08:01.827Z,40.20
2019-06-26T09:10:55.285Z,40.10
2019-06-26T09:14:12.571Z,40.20
2019-06-26T09:15:57.550Z,40.40
2019-06-26T09:18:35.497Z,40.60
2019-06-26T09:21:04.293Z,40.90
2019-06-26T09:23:36.958Z,41.10
2019-06-26T09:26:12.044Z,41.40
2019-06-26T09:28:46.135Z,41.50
2019-06-26T09:31:31.879Z,41.30
2019-06-26T09:34:05.884Z,41.30
2019-06-26T09:36:41.026Z,41.50
2019-06-26T09:39:12.553Z,41.30
2019-06-26T09:42:02.489Z,41.00
2019-06-26T09:44:52.309Z,40.60
2019-06-26T09:47:41.054Z,40.50
2019-06-26T09:50:24.357Z,40.50
2019-06-26T09:53:18.372Z,40.60
2019-06-26T09:56:07.346Z,40.90
2019-06-26T09:58:38.284Z,41.30
2019-06-26T10:01:18.626Z,41.70
2019-06-26T10:04:00.380Z,42.30
2019-06-26T10:06:30.208Z,42.70
2019-06-26T10:09:08.779Z,42.80
2019-06-26T10:11:44.918Z,42.90
2019-06-26T10:14:16.672Z,42.90
2019-06-26T10:16:46.428Z,43.10
2019-06-26T10:19:17.387Z,43.10
2019-06-26T10:21:52.974Z,43.20
2019-06-26T10:24:30.373Z,43.10
2019-06-26T10:27:12.800Z,43.20
2019-06-26T10:29:57.786Z,43.00
2019-06-26T10:32:34.832Z,42.50
2019-06-26T10:35:22.649Z,42.60
2019-06-26T10:37:52.471Z,42.80
2019-06-26T10:40:22.399Z,42.60
2019-06-26T10:42:59.037Z,42.10
2019-06-26T10:45:46.603Z,41.90
2019-06-26T10:48:35.094Z,42.00
2019-06-26T10:51:15.549Z,42.10
2019-06-26T10:53:45.165Z,42.30
2019-06-26T10:56:37.148Z,42.50
2019-06-26T10:59:17.098Z,43.00
2019-06-26T11:01:55.627Z,43.30
2019-06-26T11:04:39.649Z,43.80
2019-06-26T11:07:11.833Z,44.10
2019-06-26T11:10:08.920Z,44.50
2019-06-26T11:12:40.069Z,44.60
2019-06-26T11:15:10.933Z,44.50
2019-06-26T11:17:46.762Z,44.40
2019-06-26T11:20:20.226Z,44.30
2019-06-26T11:22:55.882Z,44.20
2019-06-26T11:25:46.443Z,44.00
2019-06-26T11:28:21.667Z,44.00
2019-06-26T11:31:02.245Z,44.00
2019-06-26T11:33:36.299Z,44.30
2019-06-26T11:36:15.867Z,44.60
2019-06-26T11:38:47.474Z,44.90
2019-06-26T11:41:22.329Z,45.20
2019-06-26T11:43:59.664Z,45.60
2019-06-26T11:46:32.308Z,45.40
2019-06-26T11:49:13.869Z,45.80
2019-06-26T11:51:36.163Z,45.90
2019-06-26T11:54:15.932Z,46.00
2019-06-26T11:56:51.055Z,46.00
2019-06-26T11:59:25.280Z,46.10
2019-06-26T12:01:58.156Z,46.20
2019-06-26T12:04:28.085Z,46.10
2019-06-26T12:07:02.406Z,45.90
2019-06-26T12:09:41.373Z,45.80
2019-06-26T12:12:28.776Z,45.60
2019-06-26T12:14:53.182Z,45.70
2019-06-26T12:17:25.511Z,45.70
2019-06-26T12:19:56.052Z,45.50
2019-06-26T12:22:29.240Z,45.20
2019-06-26T12:25:04.291Z,45.10
2019-06-26T12:27:58.317Z,45.00
2019-06-26T12:30:33.565Z,44.80
2019-06-26T12:33:15.180Z,44.40
2019-06-26T12:35:56.606Z,44.20
2019-06-26T12:38:28.765Z,43.60
2019-06-26T12:41:04.070Z,43.10
2019-06-26T12:43:33.832Z,42.70
2019-06-26T12:46:08.195Z,42.40
2019-06-26T12:48:38.048Z,41.90
2019-06-26T12:51:16.411Z,41.60
2019-06-26T12:53:53.245Z,41.10
2019-06-26T12:56:26.755Z,40.50
2019-06-26T12:59:05.058Z,40.10
2019-06-26T13:01:54.731Z,39.90
2019-06-26T13:04:24.580Z,39.70
2019-06-26T13:06:54.382Z,39.50
2019-06-26T13:09:27.617Z,39.40
2019-06-26T13:11:57.429Z,39.00
2019-06-26T13:14:31.163Z,38.80
2019-06-26T13:17:02.283Z,38.80
2019-06-26T13:19:38.177Z,38.70
2019-06-26T13:22:29.518Z,38.70
2019-06-26T13:25:11.233Z,38.80
2019-06-26T13:27:46.917Z,38.80
2019-06-26T13:30:24.682Z,38.90
2019-06-26T13:33:13.559Z,39.00
2019-06-26T13:35:43.511Z,39.10
2019-06-26T13:38:13.531Z,39.40
2019-06-26T13:40:46.728Z,39.50
2019-06-26T13:43:22.270Z,39.70
2019-06-26T13:45:58.470Z,39.70
2019-06-26T13:48:29.692Z,39.80
2019-06-26T13:51:11.794Z,39.70
2019-06-26T13:53:44.223Z,39.80
2019-06-26T13:56:17.274Z,39.70
2019-06-26T13:58:50.172Z,39.70
2019-06-26T14:01:30.739Z,39.60
2019-06-26T14:04:00.586Z,39.60
2019-06-26T14:06:33.494Z,39.50
2019-06-26T14:09:05.930Z,39.50
2019-06-26T14:11:45.914Z,39.30
2019-06-26T14:14:16.119Z,39.30
2019-06-26T14:16:50.084Z,39.30
2019-06-26T14:19:28.847Z,39.20
2019-06-26T14:22:02.811Z,39.20
2019-06-26T14:24:37.444Z,39.20
2019-06-26T14:27:23.181Z,39.20
2019-06-26T14:30:01.112Z,39.10
2019-06-26T14:32:57.910Z,38.90
2019-06-26T14:42:31.530Z,38.90
2019-06-26T14:45:27.698Z,38.90
2019-06-26T14:48:56.363Z,38.90
2019-06-26T14:51:45.497Z,38.70
2019-06-26T14:54:25.182Z,38.60
2019-06-26T14:57:16.322Z,38.50
2019-06-26T15:03:30.177Z,38.40
2019-06-26T15:06:26.599Z,38.30
2019-06-26T15:12:37.908Z,38.30
2019-06-26T15:15:54.634Z,38.20
2019-06-26T15:19:00.218Z,38.20
2019-06-26T15:21:59.742Z,38.10
2019-06-26T15:24:51.991Z,37.90
2019-06-26T15:27:32.876Z,37.80
2019-06-26T15:30:24.936Z,37.70
2019-06-26T15:33:16.667Z,37.60
2019-06-26T15:39:27.144Z,37.40
2019-06-26T15:42:08.816Z,37.30
2019-06-26T15:45:20.683Z,37.30
2019-06-26T15:48:08.713Z,37.20
2019-06-26T15:51:21.103Z,37.10
2019-06-26T15:54:17.535Z,37.10
2019-06-26T16:00:07.370Z,36.90
2019-06-26T16:03:09.078Z,36.90
2019-06-26T16:06:18.830Z,36.80
2019-06-26T16:09:07.429Z,36.70
2019-06-26T16:12:09.072Z,36.60
2019-06-26T16:16:02.874Z,36.60
2019-06-26T16:17:47.427Z,36.60
2019-06-26T16:20:58.578Z,36.50
2019-06-26T16:23:24.051Z,36.50
2019-06-26T16:26:15.541Z,36.40
2019-06-26T16:29:17.046Z,36.30
2019-06-26T16:31:52.625Z,36.30
2019-06-26T16:35:11.235Z,36.20
2019-06-26T16:40:13.976Z,36.10
2019-06-26T16:42:50.204Z,36.10
2019-06-26T16:45:36.221Z,36.10
2019-06-26T16:48:51.040Z,36.00
2019-06-26T17:04:45.724Z,36.00
2019-06-26T17:04:50.096Z,35.60
2019-06-26T17:11:07.236Z,35.40
2019-06-26T17:14:09.748Z,35.30
2019-06-26T17:17:05.714Z,35.20
2019-06-26T17:19:40.979Z,35.10
2019-06-26T17:22:33.861Z,35.00
2019-06-26T17:25:09.600Z,35.00
2019-06-26T17:27:44.347Z,34.90
2019-06-26T17:30:53.439Z,34.80
2019-06-26T17:33:52.196Z,34.70
2019-06-26T17:36:22.014Z,34.70
2019-06-26T17:38:55.861Z,34.60
2019-06-26T17:41:30.637Z,34.50
2019-06-26T17:44:33.542Z,34.40
2019-06-26T17:47:17.616Z,34.30
2019-06-26T17:49:58.344Z,34.20
2019-06-26T17:53:24.058Z,34.20
2019-06-26T17:55:58.834Z,34.00
2019-06-26T17:58:36.255Z,34.00
2019-06-26T18:01:18.938Z,33.90
2019-06-26T18:03:54.368Z,33.80
2019-06-26T18:06:24.150Z,33.70
2019-06-26T18:08:56.313Z,33.70
2019-06-26T18:11:32.520Z,33.60
2019-06-26T18:14:02.842Z,33.60
2019-06-26T18:16:32.718Z,33.50
2019-06-26T18:19:02.514Z,33.40
2019-06-26T18:21:32.360Z,33.40
2019-06-26T18:24:07.866Z,33.20
2019-06-26T18:26:37.619Z,33.20
2019-06-26T18:29:07.410Z,33.20
2019-06-26T18:31:37.117Z,33.10
2019-06-26T18:34:05.194Z,33.10
2019-06-26T18:36:35.003Z,32.90
2019-06-26T18:39:05.736Z,32.90
2019-06-26T18:41:35.511Z,32.80
2019-06-26T18:44:07.838Z,32.80
2019-06-26T18:46:42.207Z,32.70
2019-06-26T18:49:15.129Z,32.60
2019-06-26T18:51:48.845Z,32.50
2019-06-26T18:54:20.473Z,32.50
2019-06-26T18:56:50.379Z,32.50
2019-06-26T18:59:20.227Z,32.40
2019-06-26T19:01:50.091Z,32.30
2019-06-26T19:04:19.931Z,32.20
2019-06-26T19:06:49.861Z,32.20
2019-06-26T19:09:19.595Z,32.10
2019-06-26T19:11:52.530Z,32.10
2019-06-26T19:14:24.367Z,32.00
2019-06-26T19:17:01.813Z,31.90
2019-06-26T19:19:32.639Z,31.90
2019-06-26T19:22:02.431Z,31.90
2019-06-26T19:24:37.958Z,31.80
2019-06-26T19:27:10.512Z,31.70
2019-06-26T19:29:43.500Z,31.70
2019-06-26T19:32:17.601Z,31.70
2019-06-26T19:34:47.684Z,31.60
2019-06-26T19:37:22.328Z,31.50
2019-06-26T19:40:02.402Z,31.50
2019-06-26T19:42:38.145Z,31.40
2019-06-26T19:45:11.742Z,31.40
2019-06-26T19:47:48.978Z,31.30
2019-06-26T19:50:38.098Z,31.20
2019-06-26T19:53:16.719Z,31.10
2019-06-26T19:55:45.518Z,31.10
2019-06-26T19:58:16.388Z,31.10
2019-06-26T20:00:47.535Z,31.00
2019-06-26T20:03:21.269Z,31.00
2019-06-26T20:05:53.521Z,31.00
2019-06-26T20:08:24.254Z,30.90
2019-06-26T20:10:54.006Z,30.80
2019-06-26T20:13:23.820Z,30.80
2019-06-26T20:16:00.199Z,30.70
2019-06-26T20:18:37.502Z,30.70
2019-06-26T20:21:10.989Z,30.60
2019-06-26T20:23:42.119Z,30.50
2019-06-26T20:26:17.165Z,30.40
2019-06-26T20:28:52.465Z,30.40
2019-06-26T20:31:22.326Z,30.30
2019-06-26T20:33:55.142Z,30.30
2019-06-26T20:36:32.997Z,30.20
2019-06-26T20:39:05.203Z,30.20
2019-06-26T20:41:35.082Z,30.10
2019-06-26T20:44:04.829Z,30.10
2019-06-26T20:46:34.653Z,30.00
2019-06-26T20:49:04.776Z,30.00
2019-06-26T20:51:34.586Z,29.90
2019-06-26T20:54:04.473Z,29.90
2019-06-26T20:56:35.498Z,29.80
2019-06-26T20:59:08.241Z,29.70
2019-06-26T21:01:40.286Z,29.70
2019-06-26T21:04:10.203Z,29.60
2019-06-26T21:06:39.999Z,29.60
2019-06-26T21:09:09.906Z,29.50
2019-06-26T21:11:39.770Z,29.50
2019-06-26T21:14:09.495Z,29.50
2019-06-26T21:16:39.230Z,29.40
2019-06-26T21:19:09.111Z,29.40
2019-06-26T21:21:38.829Z,29.30
2019-06-26T21:24:08.563Z,29.30
2019-06-26T21:26:41.362Z,29.20
2019-06-26T21:29:11.113Z,29.10
2019-06-26T21:31:40.804Z,29.10
2019-06-26T21:34:10.531Z,29.00
2019-06-26T21:36:40.396Z,29.00
2019-06-26T21:39:10.305Z,29.00
2019-06-26T21:41:40.099Z,28.90
2019-06-26T21:44:11.413Z,28.90
2019-06-26T21:46:41.131Z,28.80
2019-06-26T21:49:10.808Z,28.80
2019-06-26T21:51:40.592Z,28.80
2019-06-26T21:54:10.323Z,28.80
2019-06-26T21:56:40.090Z,28.70
2019-06-26T21:59:12.076Z,28.70
2019-06-26T22:01:41.806Z,28.70
2019-06-26T22:04:12.119Z,28.60
2019-06-26T22:06:41.991Z,28.60
2019-06-26T22:09:11.987Z,28.60
2019-06-26T22:11:41.847Z,28.50
2019-06-26T22:14:11.623Z,28.50
2019-06-26T22:16:46.012Z,28.50
2019-06-26T22:19:18.162Z,28.40
2019-06-26T22:21:47.955Z,28.40
2019-06-26T22:24:17.772Z,28.30
2019-06-26T22:26:47.627Z,28.30
2019-06-26T22:29:17.410Z,28.20
2019-06-26T22:31:47.147Z,28.20
2019-06-26T22:34:17.007Z,28.10
2019-06-26T22:36:51.739Z,28.10
2019-06-26T22:39:20.274Z,28.00
2019-06-26T22:41:50.024Z,28.00
2019-06-26T22:44:19.859Z,28.00
2019-06-26T22:46:52.405Z,27.90
2019-06-26T22:49:22.682Z,27.90
2019-06-26T22:51:52.543Z,27.90
2019-06-26T22:54:26.205Z,27.90
2019-06-26T22:56:58.471Z,27.90
2019-06-26T22:59:28.232Z,27.80
2019-06-26T23:01:57.981Z,27.80
2019-06-26T23:04:31.694Z,27.70
2019-06-26T23:07:03.923Z,27.70
2019-06-26T23:09:33.742Z,27.70
2019-06-26T23:12:03.461Z,27.60
2019-06-26T23:14:34.252Z,27.60
2019-06-26T23:17:04.046Z,27.50
2019-06-26T23:19:33.851Z,27.50
2019-06-26T23:22:03.538Z,27.50
2019-06-26T23:24:34.641Z,27.50
2019-06-26T23:27:07.600Z,27.40
2019-06-26T23:29:37.491Z,27.30
2019-06-26T23:32:08.364Z,27.20
2019-06-26T23:34:40.989Z,27.10
2019-06-26T23:37:10.811Z,27.10
2019-06-26T23:39:43.295Z,27.00
2019-06-26T23:42:15.951Z,26.90
2019-06-26T23:44:56.010Z,26.90
2019-06-26T23:47:18.263Z,26.80
2019-06-26T23:49:51.117Z,26.70
2019-06-26T23:52:22.348Z,26.70
2019-06-26T23:54:54.962Z,26.70
2019-06-26T23:57:24.843Z,26.70
2019-06-26T23:59:58.562Z,26.70
